Time;durP1;ratioP1;P1;durP2;ratioP2;P2;SDS_P1;SDS_P2;PMS_P1;PMS_P2;Temp;Humidity;BMP_temperature;BMP_pressure;BME280_temperature;BME280_humidity;BME280_pressure;Samples;Min_cycle;Max_cycle;Signal;HPM_P1;HPM_P2
2022/06/24 00:00:54;;;;;;;14.43;13.02;;;;;;;;;;4992905;28;20179;-72
2022/06/24 00:03:19;;;;;;;12.93;11.82;;;;;;;;;;4992034;28;20211;-72
2022/06/24 00:05:48;;;;;;;12.48;11.27;;;;;;;;;;4975311;28;20191;-73
2022/06/24 00:08:13;;;;;;;13.10;11.07;;;;;;;;;;4970273;28;20180;-72
2022/06/24 00:10:39;;;;;;;12.45;11.25;;;;;;;;;;4990167;28;20191;-72
2022/06/24 00:13:05;;;;;;;13.05;11.73;;;;;;;;;;4992709;28;20208;-72
2022/06/24 00:15:31;;;;;;;13.93;12.52;;;;;;;;;;4988775;28;20203;-71
2022/06/24 00:17:57;;;;;;;13.45;12.07;;;;;;;;;;4972198;28;20222;-72
2022/06/24 00:20:23;;;;;;;15.07;13.50;;;;;;;;;;4992206;28;20180;-72
2022/06/24 00:22:49;;;;;;;14.35;12.65;;;;;;;;;;4974857;28;20211;-71
2022/06/24 00:25:15;;;;;;;16.67;14.32;;;;;;;;;;4990281;28;20180;-71
2022/06/24 00:27:41;;;;;;;16.20;14.48;;;;;;;;;;4991299;28;20253;-71
2022/06/24 00:30:07;;;;;;;15.15;13.70;;;;;;;;;;4974407;28;20194;-72
2022/06/24 00:32:32;;;;;;;14.77;13.27;;;;;;;;;;4974037;28;20270;-71
2022/06/24 00:35:09;;;;;;;15.98;14.35;;;;;;;;;;4973050;28;20187;-72
2022/06/24 00:37:35;;;;;;;16.20;14.57;;;;;;;;;;4988175;28;20638;-72
2022/06/24 00:40:09;;;;;;;16.45;14.75;;;;;;;;;;4991457;28;20251;-72
2022/06/24 00:42:36;;;;;;;16.35;14.57;;;;;;;;;;4990930;28;20297;-73
2022/06/24 00:45:06;;;;;;;19.15;15.48;;;;;;;;;;4991616;28;20208;-73
2022/06/24 00:47:33;;;;;;;22.60;16.58;;;;;;;;;;4992250;28;20183;-74
2022/06/24 00:50:00;;;;;;;18.85;16.17;;;;;;;;;;4975242;28;20254;-74
2022/06/24 00:52:25;;;;;;;22.42;18.88;;;;;;;;;;4989632;28;20211;-74
2022/06/24 00:54:50;;;;;;;24.70;19.58;;;;;;;;;;4974815;28;20176;-74
2022/06/24 00:57:16;;;;;;;22.52;18.80;;;;;;;;;;4992667;28;20187;-74
2022/06/24 00:59:42;;;;;;;27.17;19.60;;;;;;;;;;4991691;28;20207;-72
2022/06/24 01:02:08;;;;;;;23.58;20.23;;;;;;;;;;4992510;28;20211;-72
2022/06/24 01:04:34;;;;;;;21.92;18.88;;;;;;;;;;4974719;28;20198;-74
2022/06/24 01:06:59;;;;;;;21.58;17.88;;;;;;;;;;4992398;28;20628;-71
2022/06/24 01:09:25;;;;;;;12.82;8.95;;;;;;;;;;4991329;28;20323;-75
2022/06/24 01:11:51;;;;;;;12.68;10.23;;;;;;;;;;4974185;28;20195;-72
2022/06/24 01:14:16;;;;;;;8.18;7.45;;;;;;;;;;4992316;28;20554;-73
2022/06/24 01:16:41;;;;;;;11.82;9.02;;;;;;;;;;4992163;28;20182;-72
2022/06/24 01:19:07;;;;;;;11.55;9.32;;;;;;;;;;4990423;28;20179;-70
2022/06/24 01:21:33;;;;;;;11.38;10.20;;;;;;;;;;4989423;28;20191;-71
2022/06/24 01:24:02;;;;;;;13.45;9.60;;;;;;;;;;4992411;28;20180;-70
2022/06/24 01:26:27;;;;;;;13.20;10.40;;;;;;;;;;4990369;28;20627;-71
2022/06/24 01:28:52;;;;;;;13.50;9.15;;;;;;;;;;4988669;28;20270;-70
2022/06/24 01:31:18;;;;;;;8.75;6.72;;;;;;;;;;4973519;28;20180;-71
2022/06/24 01:33:43;;;;;;;8.02;5.50;;;;;;;;;;4992044;28;20199;-70
2022/06/24 01:36:08;;;;;;;4.80;4.30;;;;;;;;;;4988594;28;20683;-70
2022/06/24 01:38:33;;;;;;;5.72;4.10;;;;;;;;;;4990191;28;20258;-70
2022/06/24 01:40:58;;;;;;;7.00;4.28;;;;;;;;;;4985509;28;20183;-70
2022/06/24 01:43:23;;;;;;;5.10;4.50;;;;;;;;;;4987888;28;20254;-70
2022/06/24 01:45:49;;;;;;;4.95;4.45;;;;;;;;;;4987268;28;20216;-70
2022/06/24 01:48:14;;;;;;;6.55;4.30;;;;;;;;;;4989518;28;20242;-70
2022/06/24 01:50:39;;;;;;;5.72;4.18;;;;;;;;;;4990558;28;20191;-71
2022/06/24 01:53:04;;;;;;;5.43;4.20;;;;;;;;;;4990463;28;20212;-70
2022/06/24 01:55:29;;;;;;;6.22;3.88;;;;;;;;;;4990292;28;20554;-70
2022/06/24 01:57:55;;;;;;;3.85;3.20;;;;;;;;;;4972844;28;20188;-70
2022/06/24 02:00:20;;;;;;;4.88;3.03;;;;;;;;;;4989134;28;20609;-70
2022/06/24 02:02:45;;;;;;;3.23;2.93;;;;;;;;;;4991652;28;20254;-70
2022/06/24 02:05:11;;;;;;;4.70;3.00;;;;;;;;;;4987359;28;20433;-69
2022/06/24 02:07:36;;;;;;;5.05;3.45;;;;;;;;;;4989234;28;20664;-70
2022/06/24 02:15:29;;;;;;;6.25;4.40;;;;;;;;;;4990568;28;20242;-71
2022/06/24 02:17:55;;;;;;;5.57;4.53;;;;;;;;;;4973292;28;20175;-70
2022/06/24 02:20:20;;;;;;;5.35;4.85;;;;;;;;;;4991009;28;20179;-70
2022/06/24 02:22:45;;;;;;;7.15;3.90;;;;;;;;;;4991413;28;20204;-70
2022/06/24 02:25:11;;;;;;;6.32;4.03;;;;;;;;;;4987645;28;20180;-71
2022/06/24 02:27:36;;;;;;;5.47;3.83;;;;;;;;;;4989621;28;20184;-70
2022/06/24 02:30:02;;;;;;;8.23;4.40;;;;;;;;;;4991046;28;20253;-71
2022/06/24 02:32:27;;;;;;;5.60;5.10;;;;;;;;;;4990129;28;20293;-71
2022/06/24 02:34:53;;;;;;;4.82;4.40;;;;;;;;;;4989894;28;20180;-70
2022/06/24 02:37:18;;;;;;;9.10;6.05;;;;;;;;;;4990358;28;20176;-71
2022/06/24 02:39:44;;;;;;;5.38;4.65;;;;;;;;;;4987706;28;20179;-70
2022/06/24 02:42:09;;;;;;;6.05;4.55;;;;;;;;;;4989909;28;20215;-71
2022/06/24 02:44:34;;;;;;;5.70;4.57;;;;;;;;;;4990259;28;20262;-71
2022/06/24 02:46:59;;;;;;;6.05;4.97;;;;;;;;;;4990711;28;20176;-71
2022/06/24 02:49:24;;;;;;;5.00;4.50;;;;;;;;;;4990443;28;20183;-71
2022/06/24 02:51:49;;;;;;;7.63;4.83;;;;;;;;;;4990868;28;20234;-71
2022/06/24 02:54:15;;;;;;;6.90;4.87;;;;;;;;;;4990760;28;20903;-71
2022/06/24 02:56:40;;;;;;;5.40;4.90;;;;;;;;;;4995101;28;20456;-71
2022/06/24 02:59:05;;;;;;;7.18;5.93;;;;;;;;;;4976488;28;20221;-71
2022/06/24 03:01:30;;;;;;;6.20;5.60;;;;;;;;;;4994561;28;20190;-71
2022/06/24 03:03:55;;;;;;;7.20;6.50;;;;;;;;;;4994678;28;20537;-71
2022/06/24 03:06:21;;;;;;;8.45;7.20;;;;;;;;;;4977152;28;20686;-71
2022/06/24 03:08:46;;;;;;;9.38;7.13;;;;;;;;;;4993737;28;20225;-71
2022/06/24 03:11:12;;;;;;;8.10;7.30;;;;;;;;;;4993467;28;20188;-71
2022/06/24 03:13:37;;;;;;;8.15;7.32;;;;;;;;;;4994197;28;20724;-71
2022/06/24 03:16:02;;;;;;;8.15;7.05;;;;;;;;;;4993141;28;20183;-71
2022/06/24 03:18:28;;;;;;;8.02;7.22;;;;;;;;;;4993571;28;20175;-71
2022/06/24 03:20:53;;;;;;;9.57;8.68;;;;;;;;;;4975232;28;20543;-71
2022/06/24 03:23:18;;;;;;;8.98;7.70;;;;;;;;;;4993716;28;20650;-71
2022/06/24 03:25:44;;;;;;;10.38;8.25;;;;;;;;;;4993386;28;20194;-72
2022/06/24 03:28:09;;;;;;;8.98;8.07;;;;;;;;;;4992098;28;20572;-72
2022/06/24 03:30:35;;;;;;;11.00;8.48;;;;;;;;;;4992187;28;20612;-71
2022/06/24 03:33:00;;;;;;;10.82;9.55;;;;;;;;;;4992949;28;20299;-72
2022/06/24 03:35:25;;;;;;;14.35;10.38;;;;;;;;;;4974707;28;20207;-72
2022/06/24 03:37:50;;;;;;;12.65;10.18;;;;;;;;;;4993321;28;20188;-72
2022/06/24 03:40:16;;;;;;;11.18;9.75;;;;;;;;;;4992107;28;20672;-72
2022/06/24 03:42:41;;;;;;;10.80;9.73;;;;;;;;;;4992092;28;20298;-72
2022/06/24 03:45:06;;;;;;;12.02;10.60;;;;;;;;;;4973939;28;20195;-71
2022/06/24 03:47:32;;;;;;;14.32;10.90;;;;;;;;;;4970385;28;20187;-71
2022/06/24 03:49:57;;;;;;;10.82;9.73;;;;;;;;;;4992842;28;20245;-71
2022/06/24 03:52:22;;;;;;;10.38;9.13;;;;;;;;;;4992005;28;20214;-72
2022/06/24 03:54:47;;;;;;;10.30;8.77;;;;;;;;;;4993269;28;20179;-72
2022/06/24 03:57:13;;;;;;;9.68;8.75;;;;;;;;;;4975089;28;20176;-72
2022/06/24 03:59:38;;;;;;;10.55;9.48;;;;;;;;;;4991014;28;20214;-71
2022/06/24 04:02:03;;;;;;;10.77;7.60;;;;;;;;;;4992338;28;20200;-71
2022/06/24 04:04:29;;;;;;;11.80;8.13;;;;;;;;;;4984924;28;20179;-72
2022/06/24 04:06:54;;;;;;;9.13;7.93;;;;;;;;;;4991468;28;20332;-72
2022/06/24 04:09:19;;;;;;;9.68;8.25;;;;;;;;;;4992540;28;20247;-72
2022/06/24 04:11:44;;;;;;;10.23;8.90;;;;;;;;;;4990466;28;20297;-72
2022/06/24 04:14:09;;;;;;;9.25;8.35;;;;;;;;;;4989240;28;20183;-72
2022/06/24 04:16:35;;;;;;;10.05;8.80;;;;;;;;;;4974293;28;20175;-72
2022/06/24 04:19:00;;;;;;;10.30;8.48;;;;;;;;;;4991814;28;20176;-72
2022/06/24 04:21:25;;;;;;;9.88;8.13;;;;;;;;;;4992280;28;20183;-71
2022/06/24 04:23:50;;;;;;;11.75;8.93;;;;;;;;;;4992988;28;20627;-71
2022/06/24 04:26:17;;;;;;;10.35;9.27;;;;;;;;;;4990894;28;20262;-72
2022/06/24 04:28:42;;;;;;;11.77;10.02;;;;;;;;;;4991833;28;20172;-72
2022/06/24 04:31:08;;;;;;;11.23;10.20;;;;;;;;;;4988661;28;20280;-72
2022/06/24 04:33:33;;;;;;;11.75;10.02;;;;;;;;;;4992765;28;20223;-71
2022/06/24 04:35:58;;;;;;;12.00;10.80;;;;;;;;;;4974538;28;20183;-72
2022/06/24 04:38:23;;;;;;;12.48;11.23;;;;;;;;;;4990564;28;20421;-72
2022/06/24 04:40:49;;;;;;;13.10;11.80;;;;;;;;;;4989653;28;20653;-72
2022/06/24 04:43:14;;;;;;;15.43;13.00;;;;;;;;;;4990899;28;20239;-72
2022/06/24 04:45:39;;;;;;;14.13;12.73;;;;;;;;;;4991356;28;20186;-72
2022/06/24 04:48:05;;;;;;;15.00;13.40;;;;;;;;;;4991865;28;20179;-72
2022/06/24 04:50:30;;;;;;;15.45;13.77;;;;;;;;;;4992532;28;20654;-72
2022/06/24 04:52:55;;;;;;;16.90;15.20;;;;;;;;;;4991873;28;20218;-73
2022/06/24 04:55:20;;;;;;;16.73;15.13;;;;;;;;;;4992648;28;20559;-72
2022/06/24 04:57:47;;;;;;;16.13;14.40;;;;;;;;;;4992048;28;20612;-73
2022/06/24 05:00:12;;;;;;;17.58;15.68;;;;;;;;;;4992675;28;20183;-72
2022/06/24 05:02:38;;;;;;;18.48;16.67;;;;;;;;;;4974848;28;20203;-73
2022/06/24 05:05:03;;;;;;;19.90;17.25;;;;;;;;;;4974880;28;20642;-73
2022/06/24 05:07:29;;;;;;;18.50;16.60;;;;;;;;;;4992054;28;20684;-73
2022/06/24 05:09:54;;;;;;;20.17;18.17;;;;;;;;;;4991025;28;20677;-72
2022/06/24 05:12:19;;;;;;;20.77;18.58;;;;;;;;;;4991888;28;20249;-72
2022/06/24 05:14:44;;;;;;;19.80;17.87;;;;;;;;;;4992534;28;20180;-73
2022/06/24 05:17:10;;;;;;;20.35;18.33;;;;;;;;;;4973978;28;21104;-73
2022/06/24 05:19:35;;;;;;;20.25;18.20;;;;;;;;;;4990697;28;20249;-72
2022/06/24 05:22:00;;;;;;;19.00;17.10;;;;;;;;;;4991871;28;20208;-72
2022/06/24 05:24:25;;;;;;;17.20;15.40;;;;;;;;;;4973447;28;20196;-72
2022/06/24 05:26:50;;;;;;;17.58;15.77;;;;;;;;;;4991992;28;20186;-73
2022/06/24 05:29:16;;;;;;;18.00;16.30;;;;;;;;;;4990851;28;21821;-73
2022/06/24 05:31:42;;;;;;;17.75;16.02;;;;;;;;;;4991210;28;20239;-73
2022/06/24 05:34:07;;;;;;;17.70;15.80;;;;;;;;;;4991075;28;20606;-72
2022/06/24 05:36:32;;;;;;;17.07;15.37;;;;;;;;;;4974580;28;20179;-73
2022/06/24 05:39:00;;;;;;;16.75;15.05;;;;;;;;;;4988241;28;20519;-73
2022/06/24 05:41:25;;;;;;;16.60;14.90;;;;;;;;;;4991498;28;20180;-73
2022/06/24 05:43:50;;;;;;;17.75;16.17;;;;;;;;;;4991345;28;20294;-73
2022/06/24 05:46:15;;;;;;;16.30;14.80;;;;;;;;;;4991297;28;20652;-73
2022/06/24 05:48:41;;;;;;;16.38;14.85;;;;;;;;;;4990428;28;20172;-73
2022/06/24 05:51:07;;;;;;;17.27;15.57;;;;;;;;;;4991956;28;20192;-74
2022/06/24 05:56:16;;;;;;;17.20;15.60;;;;;;;;;;5024414;28;20305;-70
2022/06/24 05:58:41;;;;;;;16.80;15.07;;;;;;;;;;5029384;28;20212;-70
2022/06/24 06:01:10;;;;;;;17.63;15.93;;;;;;;;;;5025051;28;20178;-69
2022/06/24 06:03:36;;;;;;;17.60;15.90;;;;;;;;;;5017457;28;20436;-70
2022/06/24 06:06:01;;;;;;;17.42;15.75;;;;;;;;;;5007752;28;20182;-69
2022/06/24 06:08:26;;;;;;;17.60;15.77;;;;;;;;;;5009479;28;20183;-70
2022/06/24 06:10:51;;;;;;;19.40;17.53;;;;;;;;;;5010666;28;20328;-70
2022/06/24 06:13:17;;;;;;;17.20;15.70;;;;;;;;;;5009915;28;20518;-70
2022/06/24 06:15:42;;;;;;;17.10;15.60;;;;;;;;;;4994292;28;20425;-70
2022/06/24 06:18:08;;;;;;;14.70;13.27;;;;;;;;;;5009722;28;20262;-70
2022/06/24 06:20:34;;;;;;;15.02;13.57;;;;;;;;;;5010709;28;20688;-70
2022/06/24 06:22:59;;;;;;;14.73;13.25;;;;;;;;;;5011053;28;20194;-70
2022/06/24 06:25:24;;;;;;;14.40;12.87;;;;;;;;;;5010156;28;20711;-70
2022/06/24 06:27:50;;;;;;;14.38;12.88;;;;;;;;;;5008908;28;20438;-70
2022/06/24 06:30:16;;;;;;;14.80;13.38;;;;;;;;;;5007038;28;20734;-70
2022/06/24 06:32:41;;;;;;;14.50;13.00;;;;;;;;;;5014326;28;20286;-70
2022/06/24 06:35:07;;;;;;;14.25;11.90;;;;;;;;;;5013147;28;20277;-70
2022/06/24 06:37:32;;;;;;;13.52;12.13;;;;;;;;;;5014101;28;20181;-71
2022/06/24 06:39:57;;;;;;;13.25;12.00;;;;;;;;;;5013188;28;20278;-70
2022/06/24 06:42:23;;;;;;;14.25;12.70;;;;;;;;;;5014362;28;20278;-70
2022/06/24 06:44:48;;;;;;;12.93;11.70;;;;;;;;;;5017863;28;20190;-71
2022/06/24 06:47:13;;;;;;;12.63;11.43;;;;;;;;;;5014377;28;20190;-70
2022/06/24 06:49:39;;;;;;;16.70;11.75;;;;;;;;;;5014204;28;20640;-70
2022/06/24 06:52:04;;;;;;;14.35;11.55;;;;;;;;;;5013847;28;20203;-69
2022/06/24 06:54:30;;;;;;;13.48;12.07;;;;;;;;;;5014461;28;20193;-70
2022/06/24 06:56:55;;;;;;;13.30;12.00;;;;;;;;;;4996588;28;20237;-70
2022/06/24 06:59:20;;;;;;;16.17;14.43;;;;;;;;;;5014258;28;20252;-70
2022/06/24 07:01:46;;;;;;;16.02;14.60;;;;;;;;;;5014440;28;20370;-70
2022/06/24 07:04:11;;;;;;;14.77;13.37;;;;;;;;;;5014226;28;20581;-70
2022/06/24 07:06:36;;;;;;;17.02;15.32;;;;;;;;;;5014471;28;20420;-70
2022/06/24 07:09:01;;;;;;;15.63;14.07;;;;;;;;;;5013023;28;20183;-70
2022/06/24 07:11:27;;;;;;;15.43;13.93;;;;;;;;;;4996778;28;20522;-70
2022/06/24 07:13:54;;;;;;;15.02;13.52;;;;;;;;;;5009820;28;20191;-70
2022/06/24 07:16:20;;;;;;;15.75;14.05;;;;;;;;;;5013940;28;20175;-70
2022/06/24 07:18:45;;;;;;;14.23;12.93;;;;;;;;;;5014844;28;20541;-70
2022/06/24 07:21:11;;;;;;;15.13;13.65;;;;;;;;;;5014088;28;20171;-70
2022/06/24 07:23:36;;;;;;;15.68;14.05;;;;;;;;;;5013954;28;20195;-70
2022/06/24 07:26:01;;;;;;;14.55;12.93;;;;;;;;;;5013039;28;20646;-70
2022/06/24 07:28:27;;;;;;;13.48;12.18;;;;;;;;;;5012934;28;20179;-70
2022/06/24 07:30:52;;;;;;;13.88;12.43;;;;;;;;;;5012739;28;20183;-71
2022/06/24 07:33:17;;;;;;;12.90;11.60;;;;;;;;;;5014896;28;20229;-70
2022/06/24 07:35:43;;;;;;;14.38;12.93;;;;;;;;;;5014093;28;20175;-70
2022/06/24 07:38:08;;;;;;;13.32;12.05;;;;;;;;;;5013437;28;20171;-71
2022/06/24 07:40:34;;;;;;;14.45;12.85;;;;;;;;;;5012868;28;20206;-71
2022/06/24 07:42:59;;;;;;;14.47;13.07;;;;;;;;;;5014259;28;20230;-70
2022/06/24 07:45:24;;;;;;;14.95;13.45;;;;;;;;;;5012497;28;20416;-70
2022/06/24 07:47:49;;;;;;;14.20;12.83;;;;;;;;;;5012249;28;20187;-71
2022/06/24 07:50:14;;;;;;;13.30;12.10;;;;;;;;;;5012220;28;20420;-71
2022/06/24 07:52:40;;;;;;;14.02;12.40;;;;;;;;;;5012646;28;20464;-72
2022/06/24 07:57:48;;;;;;;13.73;12.30;;;;;;;;;;5015034;28;20181;-71
2022/06/24 08:00:14;;;;;;;13.52;12.23;;;;;;;;;;5014683;28;20179;-71
2022/06/24 08:02:39;;;;;;;16.27;13.10;;;;;;;;;;5013608;28;20199;-71
2022/06/24 08:05:04;;;;;;;15.60;13.50;;;;;;;;;;5012385;28;20684;-71
2022/06/24 08:07:30;;;;;;;15.23;13.10;;;;;;;;;;5013940;28;20182;-70
2022/06/24 08:09:55;;;;;;;17.75;14.32;;;;;;;;;;5014483;28;20207;-71
2022/06/24 08:12:20;;;;;;;16.48;14.10;;;;;;;;;;5012405;28;20239;-72
2022/06/24 08:14:45;;;;;;;19.80;16.17;;;;;;;;;;5013452;28;20182;-71
2022/06/24 08:17:10;;;;;;;17.30;14.40;;;;;;;;;;5011852;28;20996;-71
2022/06/24 08:19:36;;;;;;;12.98;11.77;;;;;;;;;;5011570;28;20512;-71
2022/06/24 08:22:01;;;;;;;11.57;10.57;;;;;;;;;;5012729;28;20737;-71
2022/06/24 08:24:26;;;;;;;10.48;9.45;;;;;;;;;;4989227;28;20182;-71
2022/06/24 08:26:51;;;;;;;9.63;8.57;;;;;;;;;;5011950;28;20175;-72
2022/06/24 08:29:17;;;;;;;9.93;7.97;;;;;;;;;;5011389;28;20195;-71
2022/06/24 08:31:43;;;;;;;7.72;7.03;;;;;;;;;;5012961;28;20539;-71
2022/06/24 08:34:08;;;;;;;7.47;6.75;;;;;;;;;;4994483;28;20211;-71
2022/06/24 08:36:33;;;;;;;7.95;7.15;;;;;;;;;;5011859;28;20191;-71
2022/06/24 08:38:59;;;;;;;9.03;6.27;;;;;;;;;;5013240;28;20187;-71
2022/06/24 08:41:25;;;;;;;7.60;6.78;;;;;;;;;;4994333;28;20416;-71
2022/06/24 08:43:51;;;;;;;7.43;5.55;;;;;;;;;;5011098;28;20203;-71
2022/06/24 08:46:16;;;;;;;7.18;5.80;;;;;;;;;;5012217;28;20189;-71
2022/06/24 08:48:42;;;;;;;7.07;5.78;;;;;;;;;;5011879;28;20179;-71
2022/06/24 08:51:11;;;;;;;6.47;5.88;;;;;;;;;;5011642;28;20183;-71
2022/06/24 08:53:36;;;;;;;8.10;7.18;;;;;;;;;;5012122;28;20646;-70
2022/06/24 08:56:01;;;;;;;6.28;5.72;;;;;;;;;;5010866;28;20183;-71
2022/06/24 08:58:26;;;;;;;7.80;6.45;;;;;;;;;;5017864;28;20235;-71
2022/06/24 09:00:51;;;;;;;7.00;6.40;;;;;;;;;;5012249;28;20265;-71
2022/06/24 09:03:17;;;;;;;8.53;6.33;;;;;;;;;;5012025;28;20203;-71
2022/06/24 09:05:42;;;;;;;7.63;5.90;;;;;;;;;;5012534;28;20408;-71
2022/06/24 09:08:07;;;;;;;7.35;6.65;;;;;;;;;;5010222;28;20667;-71
2022/06/24 09:10:33;;;;;;;7.00;6.40;;;;;;;;;;5012221;28;20206;-71
2022/06/24 09:12:58;;;;;;;8.00;7.20;;;;;;;;;;5012269;28;20290;-72
2022/06/24 09:15:23;;;;;;;7.68;6.88;;;;;;;;;;5012835;28;20179;-71
2022/06/24 09:17:49;;;;;;;8.82;7.53;;;;;;;;;;5009700;28;20660;-72
2022/06/24 09:20:14;;;;;;;7.25;6.55;;;;;;;;;;5011002;28;20179;-71
2022/06/24 09:22:39;;;;;;;8.05;7.25;;;;;;;;;;5011573;28;20207;-72
2022/06/24 09:25:05;;;;;;;9.73;7.45;;;;;;;;;;5010349;28;20183;-72
2022/06/24 09:27:31;;;;;;;8.40;7.70;;;;;;;;;;5008653;28;20668;-71
2022/06/24 09:29:56;;;;;;;9.95;8.95;;;;;;;;;;5011427;28;20186;-72
2022/06/24 09:32:21;;;;;;;12.93;9.80;;;;;;;;;;5010624;28;20213;-71
2022/06/24 09:34:58;;;;;;;10.93;9.87;;;;;;;;;;5012143;28;20959;-71
2022/06/24 09:37:56;;;;;;;14.05;11.45;;;;;;;;;;5005057;28;20416;-71
2022/06/24 09:40:25;;;;;;;12.02;10.63;;;;;;;;;;4957177;28;20195;-71
2022/06/24 09:42:55;;;;;;;13.95;12.55;;;;;;;;;;5010898;28;20202;-71
2022/06/24 09:45:21;;;;;;;12.65;11.35;;;;;;;;;;5014906;28;20189;-71
2022/06/24 09:47:47;;;;;;;14.30;10.88;;;;;;;;;;5009432;28;20270;-71
2022/06/24 09:50:12;;;;;;;13.90;12.50;;;;;;;;;;5009846;28;20201;-71
2022/06/24 09:52:39;;;;;;;20.02;15.65;;;;;;;;;;5007454;28;20223;-72
2022/06/24 09:55:04;;;;;;;14.88;13.35;;;;;;;;;;5005515;28;20193;-71
2022/06/24 09:57:30;;;;;;;18.50;15.00;;;;;;;;;;5010958;28;20175;-71
2022/06/24 10:02:39;;;;;;;16.38;14.88;;;;;;;;;;5011529;28;20218;-70
2022/06/24 10:05:06;;;;;;;18.55;15.75;;;;;;;;;;5010245;28;20183;-71
2022/06/24 10:07:34;;;;;;;15.93;14.43;;;;;;;;;;5016673;28;20252;-71
2022/06/24 10:10:03;;;;;;;16.27;14.60;;;;;;;;;;5015008;28;20182;-71
2022/06/24 10:12:29;;;;;;;15.05;13.55;;;;;;;;;;5006412;28;20261;-72
2022/06/24 10:14:57;;;;;;;16.63;14.93;;;;;;;;;;5016219;28;20183;-71
2022/06/24 10:17:23;;;;;;;15.98;14.48;;;;;;;;;;5016268;28;20182;-72
2022/06/24 10:19:50;;;;;;;15.30;13.80;;;;;;;;;;4997116;28;20179;-72
2022/06/24 10:22:34;;;;;;;15.23;13.43;;;;;;;;;;5013896;28;20265;-72
2022/06/24 10:24:59;;;;;;;15.23;13.35;;;;;;;;;;5014516;28;20664;-72
2022/06/24 10:27:44;;;;;;;12.13;11.03;;;;;;;;;;5014005;28;20218;-71
2022/06/24 10:30:09;;;;;;;11.30;10.20;;;;;;;;;;5014677;28;20535;-71
2022/06/24 10:32:34;;;;;;;10.30;9.30;;;;;;;;;;5015394;28;20724;-73
2022/06/24 10:35:04;;;;;;;11.75;10.32;;;;;;;;;;5014682;28;20438;-71
2022/06/24 10:37:30;;;;;;;10.82;9.68;;;;;;;;;;5014296;28;20661;-71
2022/06/24 10:39:56;;;;;;;12.98;11.70;;;;;;;;;;5014431;28;20179;-71
2022/06/24 10:42:22;;;;;;;13.20;12.00;;;;;;;;;;5013406;28;20261;-71
2022/06/24 10:44:54;;;;;;;15.13;13.20;;;;;;;;;;5010891;28;20191;-71
2022/06/24 10:47:19;;;;;;;13.13;11.75;;;;;;;;;;5016851;28;20175;-72
2022/06/24 10:49:51;;;;;;;12.80;11.40;;;;;;;;;;5013823;28;20190;-72
2022/06/24 10:52:34;;;;;;;9.27;8.25;;;;;;;;;;5014828;28;20202;-72
2022/06/24 10:55:14;;;;;;;8.80;7.90;;;;;;;;;;5015892;28;20266;-72
2022/06/24 10:57:40;;;;;;;10.35;9.30;;;;;;;;;;5016522;28;20192;-72
2022/06/24 11:00:12;;;;;;;10.18;8.85;;;;;;;;;;5018515;28;20175;-72
2022/06/24 11:02:37;;;;;;;9.50;8.57;;;;;;;;;;5014986;28;20199;-72
2022/06/24 11:05:03;;;;;;;8.83;7.93;;;;;;;;;;5014522;28;20496;-72
2022/06/24 11:07:28;;;;;;;10.63;9.35;;;;;;;;;;5006995;28;20721;-72
2022/06/24 11:09:54;;;;;;;9.87;8.87;;;;;;;;;;5015009;28;20183;-72
2022/06/24 11:12:27;;;;;;;10.93;9.93;;;;;;;;;;5014558;28;20495;-72
2022/06/24 11:14:52;;;;;;;11.63;10.52;;;;;;;;;;5014280;28;20412;-73
2022/06/24 11:17:19;;;;;;;12.53;11.33;;;;;;;;;;5015008;28;20187;-72
2022/06/24 11:19:44;;;;;;;13.18;11.63;;;;;;;;;;5014103;28;20415;-73
2022/06/24 11:22:09;;;;;;;12.88;11.57;;;;;;;;;;5013038;28;20637;-73
2022/06/24 11:24:36;;;;;;;9.93;8.87;;;;;;;;;;5014294;28;20175;-72
2022/06/24 11:27:05;;;;;;;13.05;11.45;;;;;;;;;;4994962;28;20852;-71
2022/06/24 11:29:49;;;;;;;15.10;12.88;;;;;;;;;;5010122;28;20190;-71
2022/06/24 11:32:15;;;;;;;17.58;13.07;;;;;;;;;;5012316;28;20232;-71
2022/06/24 11:34:42;;;;;;;16.77;13.37;;;;;;;;;;5013062;28;20262;-70
2022/06/24 11:37:07;;;;;;;16.52;14.25;;;;;;;;;;5012424;28;20451;-70
2022/06/24 11:39:33;;;;;;;15.15;12.52;;;;;;;;;;5013042;28;20558;-70
2022/06/24 11:41:58;;;;;;;17.85;13.98;;;;;;;;;;5011511;28;20245;-70
2022/06/24 11:44:34;;;;;;;16.10;13.77;;;;;;;;;;5013578;28;20190;-69
2022/06/24 11:46:59;;;;;;;17.40;13.65;;;;;;;;;;5013171;28;20178;-70
2022/06/24 11:49:25;;;;;;;18.42;12.48;;;;;;;;;;5011975;28;20724;-69
2022/06/24 11:51:51;;;;;;;17.25;13.40;;;;;;;;;;5012364;28;20213;-69
2022/06/24 11:54:16;;;;;;;14.88;12.95;;;;;;;;;;5011456;28;20578;-70
2022/06/24 11:56:43;;;;;;;12.13;10.05;;;;;;;;;;5009039;28;20179;-70
2022/06/24 11:59:09;;;;;;;10.55;9.38;;;;;;;;;;5010626;28;20183;-70
2022/06/24 12:01:34;;;;;;;10.60;9.20;;;;;;;;;;5011515;28;20262;-70
2022/06/24 12:04:00;;;;;;;10.18;9.18;;;;;;;;;;5012389;28;20222;-70
2022/06/24 12:06:26;;;;;;;10.32;8.45;;;;;;;;;;5012090;28;20175;-70
2022/06/24 12:08:51;;;;;;;12.15;9.70;;;;;;;;;;5012293;28;20202;-69
2022/06/24 12:11:18;;;;;;;11.82;9.68;;;;;;;;;;5015708;28;20544;-70
2022/06/24 12:13:54;;;;;;;11.38;10.18;;;;;;;;;;5011632;28;20290;-70
2022/06/24 12:16:19;;;;;;;10.45;9.20;;;;;;;;;;5015694;28;20174;-69
2022/06/24 12:18:45;;;;;;;12.23;10.93;;;;;;;;;;5008886;28;20639;-70
2022/06/24 12:21:10;;;;;;;13.77;11.80;;;;;;;;;;5017068;28;20419;-70
2022/06/24 12:23:36;;;;;;;11.70;10.32;;;;;;;;;;5012610;28;20474;-70
2022/06/24 12:26:27;;;;;;;14.63;13.10;;;;;;;;;;5011990;28;20266;-71
2022/06/24 12:28:59;;;;;;;16.33;13.50;;;;;;;;;;5006757;28;20572;-70
2022/06/24 12:31:25;;;;;;;17.25;15.32;;;;;;;;;;5015825;28;20262;-70
2022/06/24 12:33:51;;;;;;;18.40;14.88;;;;;;;;;;5012154;28;20338;-70
2022/06/24 12:36:18;;;;;;;22.10;15.32;;;;;;;;;;5012540;28;20214;-71
2022/06/24 12:39:03;;;;;;;18.80;14.43;;;;;;;;;;5011733;28;20750;-70
2022/06/24 12:41:29;;;;;;;19.80;14.20;;;;;;;;;;4995731;28;20206;-71
2022/06/24 12:43:55;;;;;;;22.13;16.60;;;;;;;;;;5012252;28;20191;-70
2022/06/24 12:46:21;;;;;;;21.23;14.95;;;;;;;;;;5011612;28;20269;-71
2022/06/24 12:51:30;;;;;;;16.23;14.45;;;;;;;;;;5012406;28;20570;-71
2022/06/24 12:53:56;;;;;;;19.85;15.15;;;;;;;;;;5011327;28;20302;-71
2022/06/24 12:56:21;;;;;;;19.55;16.42;;;;;;;;;;5010556;28;20186;-71
2022/06/24 12:58:52;;;;;;;20.85;15.50;;;;;;;;;;5011751;28;20190;-70
2022/06/24 13:01:18;;;;;;;16.75;14.60;;;;;;;;;;5011303;28;20205;-71
2022/06/24 13:03:43;;;;;;;20.58;15.45;;;;;;;;;;5011594;28;20743;-72
2022/06/24 13:06:09;;;;;;;20.27;15.97;;;;;;;;;;5011122;28;20267;-71
2022/06/24 13:08:34;;;;;;;20.37;15.67;;;;;;;;;;5010920;28;20427;-72
2022/06/24 13:10:59;;;;;;;25.23;15.70;;;;;;;;;;5011854;28;20244;-72
2022/06/24 13:13:24;;;;;;;18.75;14.48;;;;;;;;;;5011499;28;20467;-71
2022/06/24 13:15:50;;;;;;;19.20;14.70;;;;;;;;;;5011120;28;20183;-71
2022/06/24 13:18:15;;;;;;;17.40;13.63;;;;;;;;;;5010963;28;20175;-71
2022/06/24 13:20:40;;;;;;;20.17;12.70;;;;;;;;;;5011569;28;20187;-70
2022/06/24 13:23:06;;;;;;;19.60;12.98;;;;;;;;;;5010437;28;20999;-70
2022/06/24 13:25:31;;;;;;;17.85;13.30;;;;;;;;;;5009131;28;20190;-71
2022/06/24 13:27:56;;;;;;;19.63;13.30;;;;;;;;;;5007296;28;20189;-71
2022/06/24 13:30:21;;;;;;;17.23;12.00;;;;;;;;;;5010416;28;20186;-71
2022/06/24 13:32:47;;;;;;;15.13;10.97;;;;;;;;;;5009937;28;20565;-72
2022/06/24 13:35:12;;;;;;;14.45;11.02;;;;;;;;;;5008523;28;22729;-72
2022/06/24 13:37:38;;;;;;;14.10;9.82;;;;;;;;;;4992408;28;20206;-71
2022/06/24 13:40:03;;;;;;;12.32;8.95;;;;;;;;;;5009354;28;21807;-71
2022/06/24 13:42:29;;;;;;;8.65;7.13;;;;;;;;;;5008029;28;20257;-71
2022/06/24 13:44:55;;;;;;;11.20;8.90;;;;;;;;;;5011102;28;20178;-72
2022/06/24 13:47:20;;;;;;;8.02;6.30;;;;;;;;;;5014029;28;20186;-71
2022/06/24 13:49:45;;;;;;;8.95;7.25;;;;;;;;;;4993309;28;20171;-72
2022/06/24 13:52:10;;;;;;;7.20;6.50;;;;;;;;;;4971060;28;1137886;-72
2022/06/24 13:54:35;;;;;;;7.15;6.55;;;;;;;;;;5011640;28;20420;-72
2022/06/24 13:57:01;;;;;;;6.57;5.93;;;;;;;;;;5008340;28;20185;-72
2022/06/24 13:59:27;;;;;;;6.47;5.88;;;;;;;;;;5014169;28;20523;-72
2022/06/24 14:01:52;;;;;;;6.20;5.70;;;;;;;;;;5011352;28;20181;-72
2022/06/24 14:04:17;;;;;;;6.60;5.97;;;;;;;;;;5009987;28;20265;-72
2022/06/24 14:06:42;;;;;;;6.80;6.20;;;;;;;;;;5013062;28;20183;-72
2022/06/24 14:09:08;;;;;;;6.13;5.30;;;;;;;;;;5012812;28;20185;-72
2022/06/24 14:11:33;;;;;;;5.70;5.07;;;;;;;;;;5011761;28;20404;-71
2022/06/24 14:13:58;;;;;;;5.13;4.63;;;;;;;;;;5011033;28;20871;-71
2022/06/24 14:16:24;;;;;;;3.33;3.03;;;;;;;;;;5011376;28;20167;-71
2022/06/24 14:18:49;;;;;;;3.17;2.90;;;;;;;;;;5011327;28;20404;-72
2022/06/24 14:21:14;;;;;;;2.73;2.53;;;;;;;;;;5011244;28;20545;-72
2022/06/24 14:26:24;;;;;;;2.63;2.10;;;;;;;;;;5007225;28;20472;-72
2022/06/24 14:28:51;;;;;;;2.10;1.90;;;;;;;;;;5006345;28;20175;-72
2022/06/24 14:31:17;;;;;;;2.20;2.10;;;;;;;;;;5010017;28;20184;-72
2022/06/24 14:33:42;;;;;;;2.97;2.42;;;;;;;;;;5009482;28;20241;-72
2022/06/24 14:36:08;;;;;;;3.60;3.30;;;;;;;;;;5009771;28;20299;-72
2022/06/24 14:41:17;;;;;;;3.80;3.42;;;;;;;;;;5010802;28;20209;-72